sensor_id;sensor_type;location;lat;lon;timestamp;P1;durP1;ratioP1;P2;durP2;ratioP2
59649;SDS011;46162;57.568;25.814;2024-03-29T00:02:00;7.97;;;4.10;;
59649;SDS011;46162;57.568;25.814;2024-03-29T00:04:26;9.52;;;4.10;;
59649;SDS011;46162;57.568;25.814;2024-03-29T00:06:54;10.15;;;3.85;;
59649;SDS011;46162;57.568;25.814;2024-03-29T00:09:20;13.18;;;4.25;;
59649;SDS011;46162;57.568;25.814;2024-03-29T00:11:47;7.18;;;3.47;;
59649;SDS011;46162;57.568;25.814;2024-03-29T00:14:13;9.00;;;3.85;;
59649;SDS011;46162;57.568;25.814;2024-03-29T00:16:39;9.75;;;3.60;;
59649;SDS011;46162;57.568;25.814;2024-03-29T00:19:06;11.80;;;4.03;;
59649;SDS011;46162;57.568;25.814;2024-03-29T00:21:32;9.45;;;3.63;;
59649;SDS011;46162;57.568;25.814;2024-03-29T00:24:00;7.47;;;3.45;;
59649;SDS011;46162;57.568;25.814;2024-03-29T00:26:26;9.20;;;3.70;;
59649;SDS011;46162;57.568;25.814;2024-03-29T00:28:53;8.02;;;3.47;;
59649;SDS011;46162;57.568;25.814;2024-03-29T00:31:19;10.60;;;4.10;;
59649;SDS011;46162;57.568;25.814;2024-03-29T00:33:45;8.65;;;3.88;;
59649;SDS011;46162;57.568;25.814;2024-03-29T00:36:12;8.40;;;4.05;;
59649;SDS011;46162;57.568;25.814;2024-03-29T00:38:38;9.32;;;3.65;;
59649;SDS011;46162;57.568;25.814;2024-03-29T00:41:06;11.75;;;4.35;;
59649;SDS011;46162;57.568;25.814;2024-03-29T00:43:33;7.32;;;3.08;;
59649;SDS011;46162;57.568;25.814;2024-03-29T00:45:59;11.68;;;4.55;;
59649;SDS011;46162;57.568;25.814;2024-03-29T00:48:25;9.20;;;3.53;;
59649;SDS011;46162;57.568;25.814;2024-03-29T00:50:52;8.52;;;4.07;;
59649;SDS011;46162;57.568;25.814;2024-03-29T00:53:18;12.13;;;4.32;;
59649;SDS011;46162;57.568;25.814;2024-03-29T00:55:45;9.82;;;4.35;;
59649;SDS011;46162;57.568;25.814;2024-03-29T00:58:12;9.60;;;4.28;;
59649;SDS011;46162;57.568;25.814;2024-03-29T01:00:39;9.40;;;4.05;;
59649;SDS011;46162;57.568;25.814;2024-03-29T01:03:05;7.93;;;3.40;;
59649;SDS011;46162;57.568;25.814;2024-03-29T01:05:32;7.10;;;3.35;;
59649;SDS011;46162;57.568;25.814;2024-03-29T01:07:58;7.57;;;3.92;;
59649;SDS011;46162;57.568;25.814;2024-03-29T01:10:25;10.23;;;3.95;;
59649;SDS011;46162;57.568;25.814;2024-03-29T01:12:51;8.50;;;3.60;;
59649;SDS011;46162;57.568;25.814;2024-03-29T01:15:19;13.85;;;4.22;;
59649;SDS011;46162;57.568;25.814;2024-03-29T01:17:45;9.73;;;4.22;;
59649;SDS011;46162;57.568;25.814;2024-03-29T01:20:12;11.45;;;4.63;;
59649;SDS011;46162;57.568;25.814;2024-03-29T01:22:38;9.88;;;4.15;;
59649;SDS011;46162;57.568;25.814;2024-03-29T01:25:04;8.73;;;4.25;;
59649;SDS011;46162;57.568;25.814;2024-03-29T01:27:31;9.80;;;4.65;;
59649;SDS011;46162;57.568;25.814;2024-03-29T01:29:58;8.00;;;4.18;;
59649;SDS011;46162;57.568;25.814;2024-03-29T01:32:25;13.20;;;4.60;;
59649;SDS011;46162;57.568;25.814;2024-03-29T01:34:52;9.02;;;4.03;;
59649;SDS011;46162;57.568;25.814;2024-03-29T01:37:18;11.60;;;4.30;;
59649;SDS011;46162;57.568;25.814;2024-03-29T01:39:45;11.73;;;3.90;;
59649;SDS011;46162;57.568;25.814;2024-03-29T01:42:11;10.13;;;4.28;;
59649;SDS011;46162;57.568;25.814;2024-03-29T01:44:37;8.75;;;4.53;;
59649;SDS011;46162;57.568;25.814;2024-03-29T01:47:05;12.20;;;4.63;;
59649;SDS011;46162;57.568;25.814;2024-03-29T01:49:34;10.45;;;4.18;;
59649;SDS011;46162;57.568;25.814;2024-03-29T01:52:01;7.40;;;4.03;;
59649;SDS011;46162;57.568;25.814;2024-03-29T01:54:30;8.35;;;4.07;;
59649;SDS011;46162;57.568;25.814;2024-03-29T01:56:58;13.38;;;4.22;;
59649;SDS011;46162;57.568;25.814;2024-03-29T01:59:26;12.43;;;4.63;;
59649;SDS011;46162;57.568;25.814;2024-03-29T02:01:55;9.10;;;3.92;;
59649;SDS011;46162;57.568;25.814;2024-03-29T02:04:23;8.30;;;3.90;;
59649;SDS011;46162;57.568;25.814;2024-03-29T02:06:52;7.18;;;3.85;;
59649;SDS011;46162;57.568;25.814;2024-03-29T02:09:19;8.15;;;4.10;;
59649;SDS011;46162;57.568;25.814;2024-03-29T02:11:47;15.88;;;4.57;;
59649;SDS011;46162;57.568;25.814;2024-03-29T02:14:16;8.90;;;3.75;;
59649;SDS011;46162;57.568;25.814;2024-03-29T02:16:43;8.85;;;4.20;;
59649;SDS011;46162;57.568;25.814;2024-03-29T02:19:10;9.38;;;3.97;;
59649;SDS011;46162;57.568;25.814;2024-03-29T02:21:40;10.07;;;4.35;;
59649;SDS011;46162;57.568;25.814;2024-03-29T02:24:13;9.77;;;3.30;;
59649;SDS011;46162;57.568;25.814;2024-03-29T02:26:41;10.32;;;4.43;;
59649;SDS011;46162;57.568;25.814;2024-03-29T02:29:10;11.32;;;4.88;;
59649;SDS011;46162;57.568;25.814;2024-03-29T02:31:38;7.70;;;4.00;;
59649;SDS011;46162;57.568;25.814;2024-03-29T02:34:05;8.75;;;4.10;;
59649;SDS011;46162;57.568;25.814;2024-03-29T02:36:34;11.20;;;4.43;;
59649;SDS011;46162;57.568;25.814;2024-03-29T02:39:02;10.15;;;4.40;;
59649;SDS011;46162;57.568;25.814;2024-03-29T02:41:31;14.35;;;5.40;;
59649;SDS011;46162;57.568;25.814;2024-03-29T02:43:58;8.52;;;3.55;;
59649;SDS011;46162;57.568;25.814;2024-03-29T02:46:26;11.13;;;3.83;;
59649;SDS011;46162;57.568;25.814;2024-03-29T02:48:53;9.15;;;3.95;;
59649;SDS011;46162;57.568;25.814;2024-03-29T02:51:20;9.55;;;3.70;;
59649;SDS011;46162;57.568;25.814;2024-03-29T02:53:47;11.45;;;4.38;;
59649;SDS011;46162;57.568;25.814;2024-03-29T02:56:14;9.30;;;4.32;;
59649;SDS011;46162;57.568;25.814;2024-03-29T02:58:48;9.52;;;4.47;;
59649;SDS011;46162;57.568;25.814;2024-03-29T03:01:14;8.23;;;3.58;;
59649;SDS011;46162;57.568;25.814;2024-03-29T03:03:42;9.85;;;3.83;;
59649;SDS011;46162;57.568;25.814;2024-03-29T03:06:09;7.03;;;3.35;;
59649;SDS011;46162;57.568;25.814;2024-03-29T03:08:36;8.07;;;3.83;;
59649;SDS011;46162;57.568;25.814;2024-03-29T03:11:21;8.32;;;3.70;;
59649;SDS011;46162;57.568;25.814;2024-03-29T03:13:50;8.57;;;4.15;;
59649;SDS011;46162;57.568;25.814;2024-03-29T03:16:17;11.10;;;4.07;;
59649;SDS011;46162;57.568;25.814;2024-03-29T03:18:44;11.73;;;4.97;;
59649;SDS011;46162;57.568;25.814;2024-03-29T03:21:11;9.20;;;4.13;;
59649;SDS011;46162;57.568;25.814;2024-03-29T03:23:38;9.80;;;3.70;;
59649;SDS011;46162;57.568;25.814;2024-03-29T03:26:05;7.35;;;4.03;;
59649;SDS011;46162;57.568;25.814;2024-03-29T03:28:32;13.50;;;3.97;;
59649;SDS011;46162;57.568;25.814;2024-03-29T03:31:02;11.85;;;4.32;;
59649;SDS011;46162;57.568;25.814;2024-03-29T03:33:29;11.27;;;4.03;;
59649;SDS011;46162;57.568;25.814;2024-03-29T03:35:57;11.90;;;4.53;;
59649;SDS011;46162;57.568;25.814;2024-03-29T03:38:23;9.73;;;3.83;;
59649;SDS011;46162;57.568;25.814;2024-03-29T03:40:51;12.00;;;4.20;;
59649;SDS011;46162;57.568;25.814;2024-03-29T03:43:17;7.85;;;3.92;;
59649;SDS011;46162;57.568;25.814;2024-03-29T03:45:44;11.63;;;4.68;;
59649;SDS011;46162;57.568;25.814;2024-03-29T03:48:12;8.27;;;3.92;;
59649;SDS011;46162;57.568;25.814;2024-03-29T03:50:40;11.00;;;4.03;;
59649;SDS011;46162;57.568;25.814;2024-03-29T03:53:07;8.82;;;3.95;;
59649;SDS011;46162;57.568;25.814;2024-03-29T03:55:35;9.70;;;4.13;;
59649;SDS011;46162;57.568;25.814;2024-03-29T03:58:02;13.10;;;3.80;;
59649;SDS011;46162;57.568;25.814;2024-03-29T04:00:30;9.80;;;4.22;;
59649;SDS011;46162;57.568;25.814;2024-03-29T04:02:56;9.65;;;4.30;;
59649;SDS011;46162;57.568;25.814;2024-03-29T04:05:25;8.20;;;3.58;;
59649;SDS011;46162;57.568;25.814;2024-03-29T04:07:52;11.02;;;4.22;;
59649;SDS011;46162;57.568;25.814;2024-03-29T04:10:20;9.98;;;4.15;;
59649;SDS011;46162;57.568;25.814;2024-03-29T04:12:46;10.23;;;4.05;;
59649;SDS011;46162;57.568;25.814;2024-03-29T04:15:14;9.07;;;3.97;;
59649;SDS011;46162;57.568;25.814;2024-03-29T04:17:40;8.70;;;3.92;;
59649;SDS011;46162;57.568;25.814;2024-03-29T04:20:08;9.70;;;4.13;;
59649;SDS011;46162;57.568;25.814;2024-03-29T04:22:37;10.18;;;3.78;;
59649;SDS011;46162;57.568;25.814;2024-03-29T04:25:05;8.13;;;3.25;;
59649;SDS011;46162;57.568;25.814;2024-03-29T04:27:32;10.13;;;4.00;;
59649;SDS011;46162;57.568;25.814;2024-03-29T04:29:59;11.23;;;3.97;;
59649;SDS011;46162;57.568;25.814;2024-03-29T04:32:26;9.85;;;4.20;;
59649;SDS011;46162;57.568;25.814;2024-03-29T04:34:54;9.77;;;3.60;;
59649;SDS011;46162;57.568;25.814;2024-03-29T04:37:20;11.77;;;4.93;;
59649;SDS011;46162;57.568;25.814;2024-03-29T04:39:49;11.48;;;4.65;;
59649;SDS011;46162;57.568;25.814;2024-03-29T04:42:16;8.57;;;4.25;;
59649;SDS011;46162;57.568;25.814;2024-03-29T04:44:44;8.00;;;3.65;;
59649;SDS011;46162;57.568;25.814;2024-03-29T04:47:15;10.32;;;3.72;;
59649;SDS011;46162;57.568;25.814;2024-03-29T04:49:43;9.00;;;4.13;;
59649;SDS011;46162;57.568;25.814;2024-03-29T04:52:10;8.77;;;3.65;;
59649;SDS011;46162;57.568;25.814;2024-03-29T04:54:39;10.93;;;4.50;;
59649;SDS011;46162;57.568;25.814;2024-03-29T04:57:07;11.48;;;4.05;;
59649;SDS011;46162;57.568;25.814;2024-03-29T04:59:35;10.95;;;4.82;;
59649;SDS011;46162;57.568;25.814;2024-03-29T05:02:03;10.02;;;4.80;;
59649;SDS011;46162;57.568;25.814;2024-03-29T05:04:31;11.93;;;4.85;;
59649;SDS011;46162;57.568;25.814;2024-03-29T05:06:58;9.50;;;4.90;;
59649;SDS011;46162;57.568;25.814;2024-03-29T05:09:26;12.38;;;5.55;;
59649;SDS011;46162;57.568;25.814;2024-03-29T05:12:00;12.80;;;5.65;;
59649;SDS011;46162;57.568;25.814;2024-03-29T05:14:29;9.95;;;4.72;;
59649;SDS011;46162;57.568;25.814;2024-03-29T05:16:56;11.32;;;5.57;;
59649;SDS011;46162;57.568;25.814;2024-03-29T05:19:26;8.02;;;5.03;;
59649;SDS011;46162;57.568;25.814;2024-03-29T05:21:53;14.90;;;6.25;;
59649;SDS011;46162;57.568;25.814;2024-03-29T05:24:21;11.25;;;5.68;;
59649;SDS011;46162;57.568;25.814;2024-03-29T05:26:48;13.38;;;6.40;;
59649;SDS011;46162;57.568;25.814;2024-03-29T05:29:16;10.85;;;5.65;;
59649;SDS011;46162;57.568;25.814;2024-03-29T05:31:45;10.82;;;5.53;;
59649;SDS011;46162;57.568;25.814;2024-03-29T05:34:13;10.85;;;6.43;;
59649;SDS011;46162;57.568;25.814;2024-03-29T05:36:41;13.50;;;7.18;;
59649;SDS011;46162;57.568;25.814;2024-03-29T05:39:10;14.10;;;7.18;;
59649;SDS011;46162;57.568;25.814;2024-03-29T05:41:37;14.52;;;6.95;;
59649;SDS011;46162;57.568;25.814;2024-03-29T05:44:04;12.70;;;7.30;;
59649;SDS011;46162;57.568;25.814;2024-03-29T05:46:32;15.40;;;8.02;;
59649;SDS011;46162;57.568;25.814;2024-03-29T05:49:01;14.93;;;8.10;;
59649;SDS011;46162;57.568;25.814;2024-03-29T05:51:28;15.13;;;8.85;;
59649;SDS011;46162;57.568;25.814;2024-03-29T05:53:56;15.48;;;6.82;;
59649;SDS011;46162;57.568;25.814;2024-03-29T05:56:23;11.48;;;7.47;;
59649;SDS011;46162;57.568;25.814;2024-03-29T05:58:51;17.35;;;7.90;;
59649;SDS011;46162;57.568;25.814;2024-03-29T06:01:19;17.08;;;8.27;;
59649;SDS011;46162;57.568;25.814;2024-03-29T06:03:47;16.17;;;7.57;;
59649;SDS011;46162;57.568;25.814;2024-03-29T06:06:19;17.52;;;8.20;;
59649;SDS011;46162;57.568;25.814;2024-03-29T06:08:49;13.07;;;7.95;;
59649;SDS011;46162;57.568;25.814;2024-03-29T06:11:17;11.98;;;8.00;;
59649;SDS011;46162;57.568;25.814;2024-03-29T06:13:45;15.00;;;8.50;;
59649;SDS011;46162;57.568;25.814;2024-03-29T06:16:30;14.00;;;8.85;;
59649;SDS011;46162;57.568;25.814;2024-03-29T06:19:15;16.40;;;10.02;;
59649;SDS011;46162;57.568;25.814;2024-03-29T06:21:44;18.10;;;9.32;;
59649;SDS011;46162;57.568;25.814;2024-03-29T06:24:11;15.63;;;9.30;;
59649;SDS011;46162;57.568;25.814;2024-03-29T06:26:39;12.90;;;9.38;;
59649;SDS011;46162;57.568;25.814;2024-03-29T06:29:07;14.70;;;8.07;;
59649;SDS011;46162;57.568;25.814;2024-03-29T06:31:36;11.15;;;6.55;;
59649;SDS011;46162;57.568;25.814;2024-03-29T06:34:03;14.43;;;7.90;;
59649;SDS011;46162;57.568;25.814;2024-03-29T06:36:31;13.25;;;7.13;;
59649;SDS011;46162;57.568;25.814;2024-03-29T06:39:02;12.18;;;7.05;;
59649;SDS011;46162;57.568;25.814;2024-03-29T06:41:30;13.32;;;6.55;;
59649;SDS011;46162;57.568;25.814;2024-03-29T06:43:58;9.23;;;5.35;;
59649;SDS011;46162;57.568;25.814;2024-03-29T06:46:25;9.45;;;4.60;;
59649;SDS011;46162;57.568;25.814;2024-03-29T06:48:53;6.90;;;3.15;;
59649;SDS011;46162;57.568;25.814;2024-03-29T06:51:20;5.05;;;2.13;;
59649;SDS011;46162;57.568;25.814;2024-03-29T06:53:48;3.90;;;1.73;;
59649;SDS011;46162;57.568;25.814;2024-03-29T06:56:17;3.58;;;1.13;;
59649;SDS011;46162;57.568;25.814;2024-03-29T06:58:45;3.80;;;1.13;;
59649;SDS011;46162;57.568;25.814;2024-03-29T07:01:12;4.10;;;1.02;;
59649;SDS011;46162;57.568;25.814;2024-03-29T07:03:40;5.03;;;1.67;;
59649;SDS011;46162;57.568;25.814;2024-03-29T07:06:07;3.40;;;1.13;;
59649;SDS011;46162;57.568;25.814;2024-03-29T07:08:35;2.75;;;0.90;;
59649;SDS011;46162;57.568;25.814;2024-03-29T07:11:03;4.43;;;1.23;;
59649;SDS011;46162;57.568;25.814;2024-03-29T07:13:32;4.95;;;1.42;;
59649;SDS011;46162;57.568;25.814;2024-03-29T07:16:00;3.78;;;1.45;;
59649;SDS011;46162;57.568;25.814;2024-03-29T07:18:28;4.30;;;1.58;;
59649;SDS011;46162;57.568;25.814;2024-03-29T07:20:55;3.97;;;1.33;;
59649;SDS011;46162;57.568;25.814;2024-03-29T07:23:23;3.88;;;1.13;;
59649;SDS011;46162;57.568;25.814;2024-03-29T07:25:57;4.55;;;1.73;;
59649;SDS011;46162;57.568;25.814;2024-03-29T07:28:25;4.53;;;1.50;;
59649;SDS011;46162;57.568;25.814;2024-03-29T07:30:55;4.40;;;1.65;;
59649;SDS011;46162;57.568;25.814;2024-03-29T07:33:23;4.80;;;2.10;;
59649;SDS011;46162;57.568;25.814;2024-03-29T07:35:52;5.22;;;2.13;;
59649;SDS011;46162;57.568;25.814;2024-03-29T07:38:20;6.05;;;1.80;;
59649;SDS011;46162;57.568;25.814;2024-03-29T07:40:49;4.15;;;1.63;;
59649;SDS011;46162;57.568;25.814;2024-03-29T07:43:17;4.00;;;1.80;;
59649;SDS011;46162;57.568;25.814;2024-03-29T07:45:45;5.15;;;2.13;;
59649;SDS011;46162;57.568;25.814;2024-03-29T07:48:15;5.90;;;1.65;;
59649;SDS011;46162;57.568;25.814;2024-03-29T07:50:43;4.00;;;1.60;;
59649;SDS011;46162;57.568;25.814;2024-03-29T07:53:12;4.65;;;1.90;;
59649;SDS011;46162;57.568;25.814;2024-03-29T07:55:39;6.20;;;2.53;;
59649;SDS011;46162;57.568;25.814;2024-03-29T07:58:09;5.13;;;2.15;;
59649;SDS011;46162;57.568;25.814;2024-03-29T08:00:39;3.78;;;1.50;;
59649;SDS011;46162;57.568;25.814;2024-03-29T08:03:07;4.88;;;1.23;;
59649;SDS011;46162;57.568;25.814;2024-03-29T08:05:36;3.05;;;0.93;;
59649;SDS011;46162;57.568;25.814;2024-03-29T08:08:04;3.03;;;0.85;;
59649;SDS011;46162;57.568;25.814;2024-03-29T08:10:32;4.03;;;0.95;;
59649;SDS011;46162;57.568;25.814;2024-03-29T08:13:01;3.58;;;0.85;;
59649;SDS011;46162;57.568;25.814;2024-03-29T08:15:29;2.67;;;0.73;;
59649;SDS011;46162;57.568;25.814;2024-03-29T08:17:56;2.53;;;0.93;;
59649;SDS011;46162;57.568;25.814;2024-03-29T08:20:24;3.17;;;0.85;;
59649;SDS011;46162;57.568;25.814;2024-03-29T08:22:59;3.25;;;0.70;;
59649;SDS011;46162;57.568;25.814;2024-03-29T08:25:27;3.83;;;0.90;;
59649;SDS011;46162;57.568;25.814;2024-03-29T08:27:54;4.25;;;0.80;;
59649;SDS011;46162;57.568;25.814;2024-03-29T08:30:24;2.63;;;0.32;;
59649;SDS011;46162;57.568;25.814;2024-03-29T08:32:52;2.92;;;0.70;;
59649;SDS011;46162;57.568;25.814;2024-03-29T08:35:19;2.38;;;0.77;;
59649;SDS011;46162;57.568;25.814;2024-03-29T08:37:47;3.88;;;0.60;;
59649;SDS011;46162;57.568;25.814;2024-03-29T08:40:17;2.88;;;0.60;;
59649;SDS011;46162;57.568;25.814;2024-03-29T08:42:45;3.33;;;0.63;;
59649;SDS011;46162;57.568;25.814;2024-03-29T08:45:12;2.88;;;0.65;;
59649;SDS011;46162;57.568;25.814;2024-03-29T08:47:40;2.30;;;0.70;;
59649;SDS011;46162;57.568;25.814;2024-03-29T08:50:08;2.30;;;0.30;;
59649;SDS011;46162;57.568;25.814;2024-03-29T08:52:36;2.40;;;0.43;;
59649;SDS011;46162;57.568;25.814;2024-03-29T08:55:04;4.57;;;0.40;;
59649;SDS011;46162;57.568;25.814;2024-03-29T08:57:34;2.08;;;0.50;;
59649;SDS011;46162;57.568;25.814;2024-03-29T09:00:01;3.67;;;0.60;;
59649;SDS011;46162;57.568;25.814;2024-03-29T09:02:30;5.30;;;0.70;;
59649;SDS011;46162;57.568;25.814;2024-03-29T09:04:58;3.58;;;0.73;;
59649;SDS011;46162;57.568;25.814;2024-03-29T09:07:25;2.63;;;0.68;;
59649;SDS011;46162;57.568;25.814;2024-03-29T09:09:53;3.20;;;0.77;;
59649;SDS011;46162;57.568;25.814;2024-03-29T09:12:21;3.88;;;0.88;;
59649;SDS011;46162;57.568;25.814;2024-03-29T09:14:50;3.67;;;0.75;;
59649;SDS011;46162;57.568;25.814;2024-03-29T09:17:18;3.40;;;0.73;;
59649;SDS011;46162;57.568;25.814;2024-03-29T09:19:49;2.42;;;0.40;;
59649;SDS011;46162;57.568;25.814;2024-03-29T09:22:17;2.10;;;0.40;;
59649;SDS011;46162;57.568;25.814;2024-03-29T09:24:45;4.05;;;0.73;;
59649;SDS011;46162;57.568;25.814;2024-03-29T09:27:13;2.30;;;0.50;;
59649;SDS011;46162;57.568;25.814;2024-03-29T09:29:42;3.70;;;0.40;;
59649;SDS011;46162;57.568;25.814;2024-03-29T09:32:11;3.08;;;0.57;;
59649;SDS011;46162;57.568;25.814;2024-03-29T09:34:38;2.50;;;0.40;;
59649;SDS011;46162;57.568;25.814;2024-03-29T09:37:06;2.05;;;0.50;;
59649;SDS011;46162;57.568;25.814;2024-03-29T09:39:33;2.30;;;0.68;;
59649;SDS011;46162;57.568;25.814;2024-03-29T09:42:01;3.33;;;1.10;;
59649;SDS011;46162;57.568;25.814;2024-03-29T09:44:31;3.15;;;0.65;;
59649;SDS011;46162;57.568;25.814;2024-03-29T09:47:02;2.45;;;0.55;;
59649;SDS011;46162;57.568;25.814;2024-03-29T09:49:32;3.72;;;1.08;;
59649;SDS011;46162;57.568;25.814;2024-03-29T09:52:01;4.63;;;0.70;;
59649;SDS011;46162;57.568;25.814;2024-03-29T09:54:28;3.50;;;0.40;;
59649;SDS011;46162;57.568;25.814;2024-03-29T09:56:56;2.97;;;0.63;;
59649;SDS011;46162;57.568;25.814;2024-03-29T09:59:24;2.75;;;0.75;;
59649;SDS011;46162;57.568;25.814;2024-03-29T10:01:53;4.68;;;0.70;;
59649;SDS011;46162;57.568;25.814;2024-03-29T10:04:23;3.42;;;1.30;;
59649;SDS011;46162;57.568;25.814;2024-03-29T10:06:52;4.05;;;0.82;;
59649;SDS011;46162;57.568;25.814;2024-03-29T10:09:21;2.30;;;0.82;;
59649;SDS011;46162;57.568;25.814;2024-03-29T10:11:53;2.50;;;0.80;;
59649;SDS011;46162;57.568;25.814;2024-03-29T10:14:20;3.15;;;1.27;;
59649;SDS011;46162;57.568;25.814;2024-03-29T10:16:50;3.85;;;1.23;;
59649;SDS011;46162;57.568;25.814;2024-03-29T10:19:18;4.25;;;1.23;;
59649;SDS011;46162;57.568;25.814;2024-03-29T10:21:47;5.15;;;1.40;;
59649;SDS011;46162;57.568;25.814;2024-03-29T10:24:16;2.90;;;1.00;;
59649;SDS011;46162;57.568;25.814;2024-03-29T10:26:44;4.88;;;1.48;;
59649;SDS011;46162;57.568;25.814;2024-03-29T10:29:11;3.53;;;1.40;;
59649;SDS011;46162;57.568;25.814;2024-03-29T10:31:39;4.97;;;1.38;;
59649;SDS011;46162;57.568;25.814;2024-03-29T10:34:06;3.15;;;1.20;;
59649;SDS011;46162;57.568;25.814;2024-03-29T10:36:34;2.70;;;1.10;;
59649;SDS011;46162;57.568;25.814;2024-03-29T10:39:02;3.63;;;1.17;;
59649;SDS011;46162;57.568;25.814;2024-03-29T10:41:40;2.78;;;1.15;;
59649;SDS011;46162;57.568;25.814;2024-03-29T10:44:09;5.90;;;1.58;;
59649;SDS011;46162;57.568;25.814;2024-03-29T10:46:38;5.18;;;1.48;;
59649;SDS011;46162;57.568;25.814;2024-03-29T10:49:07;2.72;;;1.13;;
59649;SDS011;46162;57.568;25.814;2024-03-29T10:51:37;3.63;;;1.70;;
59649;SDS011;46162;57.568;25.814;2024-03-29T10:54:06;3.60;;;1.55;;
59649;SDS011;46162;57.568;25.814;2024-03-29T10:56:36;2.75;;;1.08;;
59649;SDS011;46162;57.568;25.814;2024-03-29T10:59:08;4.18;;;1.40;;
59649;SDS011;46162;57.568;25.814;2024-03-29T11:01:56;5.22;;;2.50;;
59649;SDS011;46162;57.568;25.814;2024-03-29T11:04:28;4.47;;;1.90;;
59649;SDS011;46162;57.568;25.814;2024-03-29T11:06:59;4.95;;;1.40;;
59649;SDS011;46162;57.568;25.814;2024-03-29T11:09:32;5.28;;;2.85;;
59649;SDS011;46162;57.568;25.814;2024-03-29T11:12:01;7.38;;;3.85;;
59649;SDS011;46162;57.568;25.814;2024-03-29T11:14:34;5.78;;;3.40;;
59649;SDS011;46162;57.568;25.814;2024-03-29T11:17:07;6.75;;;3.45;;
59649;SDS011;46162;57.568;25.814;2024-03-29T11:19:35;6.97;;;4.38;;
59649;SDS011;46162;57.568;25.814;2024-03-29T11:22:03;7.93;;;4.35;;
59649;SDS011;46162;57.568;25.814;2024-03-29T11:24:31;7.97;;;4.05;;
59649;SDS011;46162;57.568;25.814;2024-03-29T11:27:06;6.80;;;4.25;;
59649;SDS011;46162;57.568;25.814;2024-03-29T11:29:36;7.45;;;4.43;;
59649;SDS011;46162;57.568;25.814;2024-03-29T11:32:06;8.75;;;4.50;;
59649;SDS011;46162;57.568;25.814;2024-03-29T11:34:34;7.32;;;4.70;;
59649;SDS011;46162;57.568;25.814;2024-03-29T11:37:07;6.85;;;4.20;;
59649;SDS011;46162;57.568;25.814;2024-03-29T11:39:36;10.90;;;6.65;;
59649;SDS011;46162;57.568;25.814;2024-03-29T11:42:04;16.65;;;8.52;;
59649;SDS011;46162;57.568;25.814;2024-03-29T11:44:31;20.98;;;12.45;;
59649;SDS011;46162;57.568;25.814;2024-03-29T11:47:00;19.73;;;11.68;;
59649;SDS011;46162;57.568;25.814;2024-03-29T11:49:32;21.23;;;13.13;;
59649;SDS011;46162;57.568;25.814;2024-03-29T11:52:03;18.20;;;12.00;;
59649;SDS011;46162;57.568;25.814;2024-03-29T11:54:38;20.05;;;12.50;;
59649;SDS011;46162;57.568;25.814;2024-03-29T11:57:06;20.30;;;11.93;;
59649;SDS011;46162;57.568;25.814;2024-03-29T11:59:34;22.48;;;12.88;;
59649;SDS011;46162;57.568;25.814;2024-03-29T12:02:03;23.67;;;12.85;;
59649;SDS011;46162;57.568;25.814;2024-03-29T12:04:34;23.70;;;13.05;;
59649;SDS011;46162;57.568;25.814;2024-03-29T12:07:01;23.75;;;13.88;;
59649;SDS011;46162;57.568;25.814;2024-03-29T12:09:30;23.23;;;13.43;;
59649;SDS011;46162;57.568;25.814;2024-03-29T12:11:58;23.58;;;13.10;;
59649;SDS011;46162;57.568;25.814;2024-03-29T12:14:31;26.67;;;13.73;;
59649;SDS011;46162;57.568;25.814;2024-03-29T12:17:03;24.30;;;14.35;;
59649;SDS011;46162;57.568;25.814;2024-03-29T12:19:36;24.65;;;12.70;;
59649;SDS011;46162;57.568;25.814;2024-03-29T12:22:07;22.88;;;13.25;;
59649;SDS011;46162;57.568;25.814;2024-03-29T12:24:35;28.33;;;13.73;;
59649;SDS011;46162;57.568;25.814;2024-03-29T12:27:03;23.77;;;12.40;;
59649;SDS011;46162;57.568;25.814;2024-03-29T12:29:31;26.73;;;15.43;;
59649;SDS011;46162;57.568;25.814;2024-03-29T12:32:01;28.35;;;14.38;;
59649;SDS011;46162;57.568;25.814;2024-03-29T12:34:32;22.55;;;13.85;;
59649;SDS011;46162;57.568;25.814;2024-03-29T12:36:59;18.95;;;10.95;;
59649;SDS011;46162;57.568;25.814;2024-03-29T12:39:29;18.55;;;11.10;;
59649;SDS011;46162;57.568;25.814;2024-03-29T12:41:59;20.40;;;12.52;;
59649;SDS011;46162;57.568;25.814;2024-03-29T12:44:27;16.88;;;11.10;;
59649;SDS011;46162;57.568;25.814;2024-03-29T12:46:56;18.38;;;12.57;;
59649;SDS011;46162;57.568;25.814;2024-03-29T12:49:24;22.65;;;12.27;;
59649;SDS011;46162;57.568;25.814;2024-03-29T12:51:55;18.42;;;11.95;;
59649;SDS011;46162;57.568;25.814;2024-03-29T12:54:23;19.48;;;12.65;;
59649;SDS011;46162;57.568;25.814;2024-03-29T12:56:52;19.02;;;12.02;;
59649;SDS011;46162;57.568;25.814;2024-03-29T12:59:20;17.10;;;12.20;;
59649;SDS011;46162;57.568;25.814;2024-03-29T13:01:48;18.48;;;11.90;;
59649;SDS011;46162;57.568;25.814;2024-03-29T13:04:15;19.42;;;11.32;;
59649;SDS011;46162;57.568;25.814;2024-03-29T13:06:43;18.27;;;9.93;;
59649;SDS011;46162;57.568;25.814;2024-03-29T13:09:12;17.55;;;11.98;;
59649;SDS011;46162;57.568;25.814;2024-03-29T13:11:39;17.00;;;11.18;;
59649;SDS011;46162;57.568;25.814;2024-03-29T13:14:07;16.83;;;10.80;;
59649;SDS011;46162;57.568;25.814;2024-03-29T13:16:35;15.38;;;10.07;;
59649;SDS011;46162;57.568;25.814;2024-03-29T13:19:02;15.98;;;10.30;;
59649;SDS011;46162;57.568;25.814;2024-03-29T13:21:30;14.77;;;8.68;;
59649;SDS011;46162;57.568;25.814;2024-03-29T13:23:57;12.25;;;8.35;;
59649;SDS011;46162;57.568;25.814;2024-03-29T13:26:26;14.05;;;7.65;;
59649;SDS011;46162;57.568;25.814;2024-03-29T13:31:23;9.68;;;5.78;;
59649;SDS011;46162;57.568;25.814;2024-03-29T13:33:54;8.88;;;4.22;;
59649;SDS011;46162;57.568;25.814;2024-03-29T13:36:29;10.35;;;4.72;;
59649;SDS011;46162;57.568;25.814;2024-03-29T13:38:56;9.10;;;4.22;;
59649;SDS011;46162;57.568;25.814;2024-03-29T13:41:23;6.15;;;3.72;;
59649;SDS011;46162;57.568;25.814;2024-03-29T13:43:52;5.82;;;3.08;;
59649;SDS011;46162;57.568;25.814;2024-03-29T13:46:20;5.97;;;2.33;;
59649;SDS011;46162;57.568;25.814;2024-03-29T13:48:48;6.00;;;2.40;;
59649;SDS011;46162;57.568;25.814;2024-03-29T13:51:15;5.70;;;2.55;;
59649;SDS011;46162;57.568;25.814;2024-03-29T13:53:43;5.78;;;1.52;;
59649;SDS011;46162;57.568;25.814;2024-03-29T13:56:10;5.18;;;1.70;;
59649;SDS011;46162;57.568;25.814;2024-03-29T13:58:38;3.88;;;1.42;;
59649;SDS011;46162;57.568;25.814;2024-03-29T14:01:07;5.28;;;2.10;;
59649;SDS011;46162;57.568;25.814;2024-03-29T14:03:35;4.25;;;1.85;;
59649;SDS011;46162;57.568;25.814;2024-03-29T14:06:02;4.15;;;2.00;;
59649;SDS011;46162;57.568;25.814;2024-03-29T14:08:31;3.80;;;1.30;;
59649;SDS011;46162;57.568;25.814;2024-03-29T14:10:59;4.18;;;1.20;;
59649;SDS011;46162;57.568;25.814;2024-03-29T14:13:26;2.63;;;0.90;;
59649;SDS011;46162;57.568;25.814;2024-03-29T14:15:54;3.88;;;0.95;;
59649;SDS011;46162;57.568;25.814;2024-03-29T14:18:23;4.80;;;1.27;;
59649;SDS011;46162;57.568;25.814;2024-03-29T14:20:50;5.40;;;1.40;;
59649;SDS011;46162;57.568;25.814;2024-03-29T14:23:18;4.25;;;1.33;;
59649;SDS011;46162;57.568;25.814;2024-03-29T14:25:49;4.97;;;1.00;;
59649;SDS011;46162;57.568;25.814;2024-03-29T14:28:17;5.55;;;1.05;;
59649;SDS011;46162;57.568;25.814;2024-03-29T14:30:44;4.07;;;0.75;;
59649;SDS011;46162;57.568;25.814;2024-03-29T14:33:12;5.20;;;1.10;;
59649;SDS011;46162;57.568;25.814;2024-03-29T14:35:41;5.55;;;1.35;;
59649;SDS011;46162;57.568;25.814;2024-03-29T14:38:08;4.78;;;1.05;;